Flugplatz Blaubeuren

Für EDMC sind keine METAR/TAF Berichte vorhanden.
Es werden die Flugwettermeldungen vom Flugplatz Laupheim Airport in 23 km Entfernung angezeigt.

Bericht für ETHL

vom 14.11. um 10:20 UTC

Wind 6 kt aus 40°

Sichtweite 10 km oder mehr

gering bewölkt in 300 ft

aufgelockert bewölkt in 21000 ft

Temperatur 2.0°C

Taupunkt -1.0°C

Luftfeuchtigkeit 80%

Luftdruck 1003 hPa

ETHL 141020Z 04006KT 9999 FEW003 SCT210 02/M01 Q1003 BLU+BLU+TEMPO BLU

Prognose für ETHL

vom 14.11. um 00:00 UTC

Zwischen 00:00 und 00:00 UTC übergehend zu

Wind 7 kt aus 60°

Sichtweite 10 km oder mehr

keine signifikanten Wettererscheinungen

aufgebrochene Bewölkung in 14000 ft

aufgebrochene Bewölkung in 20000 ft


Zwischen 00:00 UTC und 00:00 UTC

Wind 5 kt aus 30°

Sichtweite 2000 m

feuchter Dunst

gering bewölkt in 100 ft

aufgebrochene Bewölkung in 16000 ft

aufgebrochene Bewölkung in 22000 ft

TAF COR ETHL 140820Z 1409/1418 03005KT 2000 BR FEW001 BKN160 BKN220 BECMG 1409/1410 06007KT 9999 NSW BKN140 BKN200
Impressum